createdAt,value
2018-07-27T00:01:29.488Z,82.00
2018-07-27T00:03:57.892Z,82.10
2018-07-27T00:06:26.306Z,82.00
2018-07-27T00:08:54.720Z,82.10
2018-07-27T00:11:23.110Z,82.30
2018-07-27T00:13:51.530Z,82.60
2018-07-27T00:18:48.484Z,82.70
2018-07-27T00:21:16.882Z,83.20
2018-07-27T00:23:45.282Z,83.30
2018-07-27T00:26:13.692Z,83.50
2018-07-27T00:28:42.216Z,83.50
2018-07-27T00:31:10.609Z,83.40
2018-07-27T00:33:39.036Z,83.40
2018-07-27T00:36:07.467Z,83.20
2018-07-27T00:38:35.889Z,83.20
2018-07-27T00:41:04.330Z,83.30
2018-07-27T00:43:32.762Z,83.50
2018-07-27T00:46:01.157Z,83.40
2018-07-27T00:50:57.679Z,83.70
2018-07-27T00:53:26.097Z,84.20
2018-07-27T00:55:54.502Z,84.20
2018-07-27T00:58:22.971Z,84.20
2018-07-27T01:00:51.429Z,84.20
2018-07-27T01:03:19.941Z,84.20
2018-07-27T01:05:48.360Z,84.20
2018-07-27T01:08:16.788Z,84.10
2018-07-27T01:10:45.288Z,84.10
2018-07-27T01:13:13.734Z,84.20
2018-07-27T01:15:42.185Z,84.50
2018-07-27T01:18:10.621Z,84.50
2018-07-27T01:20:39.957Z,84.40
2018-07-27T01:23:08.429Z,84.60
2018-07-27T01:25:36.939Z,84.60
2018-07-27T01:28:05.465Z,84.50
2018-07-27T01:30:33.916Z,84.40
2018-07-27T01:33:02.372Z,84.50
2018-07-27T01:35:30.856Z,84.60
2018-07-27T01:37:59.289Z,84.70
2018-07-27T01:40:27.791Z,84.50
2018-07-27T01:42:56.252Z,84.40
2018-07-27T01:45:24.733Z,84.80
2018-07-27T01:47:53.180Z,84.90
2018-07-27T01:50:21.641Z,84.90
2018-07-27T01:52:50.056Z,85.60
2018-07-27T01:55:18.500Z,86.20
2018-07-27T01:57:46.912Z,86.00
2018-07-27T02:00:15.535Z,86.00
2018-07-27T02:02:44.027Z,85.80
2018-07-27T02:05:12.491Z,86.00
2018-07-27T02:07:40.917Z,85.70
2018-07-27T02:10:09.401Z,85.80
2018-07-27T02:12:38.085Z,85.90
2018-07-27T02:15:07.633Z,85.70
2018-07-27T02:17:36.067Z,85.90
2018-07-27T02:22:32.940Z,86.80
2018-07-27T02:25:01.369Z,86.70
2018-07-27T02:27:29.755Z,86.70
2018-07-27T02:29:58.206Z,86.60
2018-07-27T02:32:26.637Z,86.70
2018-07-27T02:34:55.146Z,86.60
2018-07-27T02:37:23.580Z,86.90
2018-07-27T02:39:52.049Z,86.70
2018-07-27T02:42:20.456Z,86.80
2018-07-27T02:48:09.951Z,87.10
2018-07-27T02:50:38.375Z,87.10
2018-07-27T02:53:06.779Z,86.80
2018-07-27T02:55:35.237Z,86.70
2018-07-27T02:58:03.664Z,86.70
2018-07-27T03:00:32.105Z,87.10
2018-07-27T03:03:00.569Z,86.90
2018-07-27T03:05:29.041Z,86.70
2018-07-27T03:10:25.620Z,86.70
2018-07-27T03:12:54.186Z,86.80
2018-07-27T03:15:22.648Z,86.70
2018-07-27T03:17:51.062Z,86.50
2018-07-27T03:20:19.519Z,86.20
2018-07-27T03:22:48.040Z,86.20
2018-07-27T03:25:16.713Z,86.00
2018-07-27T03:27:45.111Z,85.90
2018-07-27T03:30:13.521Z,86.00
2018-07-27T03:32:41.968Z,86.10
2018-07-27T03:35:10.369Z,86.70
2018-07-27T03:37:38.901Z,87.00
2018-07-27T03:42:35.525Z,86.50
2018-07-27T03:45:04.033Z,86.50
2018-07-27T03:47:32.476Z,86.30
2018-07-27T03:50:00.889Z,86.00
2018-07-27T03:52:29.330Z,86.00
2018-07-27T03:54:57.724Z,86.10
2018-07-27T03:57:26.177Z,86.20
2018-07-27T03:59:54.588Z,86.20
2018-07-27T04:02:23.045Z,86.20
2018-07-27T04:04:51.436Z,86.30
2018-07-27T04:07:19.904Z,86.30
2018-07-27T04:09:48.323Z,86.70
2018-07-27T04:12:16.794Z,86.70
2018-07-27T04:14:45.191Z,86.70
2018-07-27T04:17:13.617Z,86.70
2018-07-27T04:19:42.004Z,86.70
2018-07-27T04:22:10.441Z,86.50
2018-07-27T04:24:38.861Z,86.30
2018-07-27T04:27:07.309Z,86.00
2018-07-27T04:32:03.911Z,86.00
2018-07-27T04:34:32.301Z,86.00
2018-07-27T04:37:00.729Z,85.90
2018-07-27T04:39:29.148Z,85.90
2018-07-27T04:41:57.620Z,85.80
2018-07-27T04:44:26.042Z,85.60
2018-07-27T04:49:22.623Z,85.20
2018-07-27T04:51:51.170Z,85.60
2018-07-27T04:54:19.582Z,85.30
2018-07-27T04:56:48.079Z,85.10
2018-07-27T04:59:16.451Z,84.90
2018-07-27T05:01:44.912Z,84.70
2018-07-27T05:04:13.329Z,84.70
2018-07-27T05:06:41.769Z,84.50
2018-07-27T05:09:15.613Z,84.60
2018-07-27T05:11:44.062Z,84.60
2018-07-27T05:14:12.461Z,84.40
2018-07-27T05:16:40.888Z,84.70
2018-07-27T05:19:09.332Z,84.50
2018-07-27T05:21:37.753Z,84.50
2018-07-27T05:24:06.425Z,84.80
2018-07-27T05:26:34.869Z,84.90
2018-07-27T05:29:03.461Z,84.40
2018-07-27T05:31:31.908Z,84.30
2018-07-27T05:34:00.417Z,84.10
2018-07-27T05:36:28.862Z,83.80
2018-07-27T05:38:57.484Z,83.10
2018-07-27T05:41:25.933Z,82.90
2018-07-27T05:43:54.360Z,81.90
2018-07-27T05:46:22.753Z,81.70
2018-07-27T05:48:51.181Z,81.90
2018-07-27T05:51:19.605Z,81.40
2018-07-27T05:53:48.076Z,81.80
2018-07-27T05:56:16.497Z,81.40
2018-07-27T05:58:44.918Z,81.60
2018-07-27T06:01:13.375Z,81.30
2018-07-27T06:08:38.178Z,81.30
2018-07-27T06:11:06.660Z,81.60
2018-07-27T06:13:35.102Z,81.30
2018-07-27T06:16:03.551Z,80.40
2018-07-27T06:18:32.124Z,79.70
2018-07-27T06:21:00.640Z,78.40
2018-07-27T06:23:29.086Z,76.90
2018-07-27T06:25:57.548Z,76.00
2018-07-27T06:28:26.013Z,75.40
2018-07-27T06:30:54.420Z,75.20
2018-07-27T06:33:24.028Z,74.50
2018-07-27T06:35:52.928Z,73.20
2018-07-27T06:38:21.352Z,70.90
2018-07-27T06:43:18.044Z,67.50
2018-07-27T06:45:46.503Z,67.00
2018-07-27T06:48:17.875Z,64.20
2018-07-27T06:50:47.209Z,62.40
2018-07-27T06:55:44.675Z,59.60
2018-07-27T06:58:13.100Z,59.20
2018-07-27T07:00:41.501Z,59.30
2018-07-27T07:03:10.046Z,58.70
2018-07-27T07:05:38.489Z,58.50
2018-07-27T07:08:06.917Z,57.70
2018-07-27T07:10:35.396Z,55.90
2018-07-27T07:13:03.837Z,56.10
2018-07-27T07:15:32.550Z,55.30
2018-07-27T07:20:29.131Z,57.40
2018-07-27T07:22:57.532Z,57.30
2018-07-27T07:25:26.059Z,56.70
2018-07-27T07:27:54.392Z,55.80
2018-07-27T07:30:23.073Z,56.80
2018-07-27T07:32:51.678Z,56.90
2018-07-27T07:35:20.119Z,57.70
2018-07-27T07:37:48.569Z,59.20
2018-07-27T07:42:45.175Z,54.70
2018-07-27T07:45:13.628Z,55.30
2018-07-27T07:47:42.044Z,57.20
2018-07-27T07:50:10.490Z,57.40
2018-07-27T07:52:38.899Z,56.80
2018-07-27T07:55:07.348Z,55.80
2018-07-27T07:57:35.776Z,53.30
2018-07-27T08:00:05.365Z,53.10
2018-07-27T08:02:33.838Z,52.10
2018-07-27T08:05:02.274Z,51.00
2018-07-27T08:07:30.677Z,51.40
2018-07-27T08:09:59.091Z,51.00
2018-07-27T08:12:27.537Z,50.90
2018-07-27T08:14:55.950Z,50.20
2018-07-27T08:17:24.449Z,51.50
2018-07-27T08:19:52.860Z,51.80
2018-07-27T08:22:21.514Z,52.20
2018-07-27T08:24:49.964Z,51.50
2018-07-27T08:27:18.361Z,50.60
2018-07-27T08:32:15.318Z,49.00
2018-07-27T08:34:44.012Z,49.90
2018-07-27T08:37:12.497Z,49.50
2018-07-27T08:39:42.461Z,49.20
2018-07-27T08:44:40.299Z,50.70
2018-07-27T08:47:08.942Z,51.40
2018-07-27T08:49:37.398Z,52.90
2018-07-27T08:52:05.855Z,51.60
2018-07-27T08:54:34.285Z,51.60
2018-07-27T08:57:02.751Z,50.40
2018-07-27T09:01:59.368Z,51.70
2018-07-27T09:04:27.880Z,51.40
2018-07-27T09:06:56.351Z,51.20
2018-07-27T09:09:24.807Z,51.80
2018-07-27T09:11:53.236Z,51.40
2018-07-27T09:14:21.837Z,53.40
2018-07-27T09:16:50.323Z,52.50
2018-07-27T09:19:18.740Z,54.00
2018-07-27T09:21:47.217Z,54.00
2018-07-27T09:24:15.732Z,53.20
2018-07-27T09:26:44.069Z,53.10
2018-07-27T09:29:12.475Z,51.70
2018-07-27T09:31:40.891Z,52.60
2018-07-27T09:36:37.475Z,53.90
2018-07-27T09:39:08.386Z,51.90
2018-07-27T09:41:36.880Z,50.70
2018-07-27T09:44:05.512Z,51.20
2018-07-27T09:46:34.271Z,50.80
2018-07-27T09:49:02.736Z,51.60
2018-07-27T09:51:31.210Z,50.50
2018-07-27T09:53:59.600Z,51.00
2018-07-27T09:56:28.047Z,49.80
2018-07-27T09:58:56.453Z,50.10
2018-07-27T10:01:26.438Z,50.00
2018-07-27T10:03:55.362Z,49.30
2018-07-27T10:06:23.812Z,48.10
2018-07-27T10:08:52.212Z,49.50
2018-07-27T10:11:21.008Z,50.70
2018-07-27T10:13:49.429Z,51.80
2018-07-27T10:16:17.843Z,50.70
2018-07-27T10:18:46.444Z,51.00
2018-07-27T10:21:14.875Z,50.70
2018-07-27T10:23:43.325Z,49.10
2018-07-27T10:26:11.752Z,50.00
2018-07-27T10:28:40.204Z,50.90
2018-07-27T10:31:08.699Z,50.40
2018-07-27T10:33:37.102Z,50.70
2018-07-27T10:36:05.796Z,51.60
2018-07-27T10:38:34.287Z,50.50
2018-07-27T10:41:02.743Z,50.60
2018-07-27T10:43:31.214Z,50.80
2018-07-27T10:45:59.617Z,51.80
2018-07-27T10:48:28.056Z,51.20
2018-07-27T10:50:56.465Z,50.60
2018-07-27T10:53:24.936Z,51.30
2018-07-27T10:55:53.338Z,52.40
2018-07-27T10:58:21.769Z,52.20
2018-07-27T11:00:50.165Z,52.50
2018-07-27T11:03:18.608Z,50.90
2018-07-27T11:08:15.163Z,54.50
2018-07-27T11:10:43.601Z,56.40
2018-07-27T11:13:12.084Z,57.70
2018-07-27T11:15:40.498Z,58.90
2018-07-27T11:20:37.080Z,60.20
2018-07-27T11:25:33.655Z,60.90
2018-07-27T11:28:02.134Z,60.30
2018-07-27T11:34:01.797Z,60.60
2018-07-27T11:38:58.338Z,60.20
2018-07-27T11:41:26.804Z,60.90
2018-07-27T11:43:55.244Z,60.90
2018-07-27T11:46:23.653Z,59.80
2018-07-27T11:48:52.926Z,59.50
2018-07-27T11:51:22.253Z,59.90
2018-07-27T11:53:50.697Z,59.30
2018-07-27T11:56:19.154Z,58.70
2018-07-27T11:58:47.685Z,59.10
2018-07-27T12:01:16.089Z,60.20
2018-07-27T12:03:44.528Z,61.50
2018-07-27T12:06:12.964Z,61.60
2018-07-27T12:08:41.399Z,61.90
2018-07-27T12:11:09.793Z,62.40
2018-07-27T12:16:06.405Z,61.90
2018-07-27T12:18:34.838Z,62.60
2018-07-27T12:21:03.356Z,63.00
2018-07-27T12:23:31.764Z,63.20
2018-07-27T12:26:00.168Z,62.70
2018-07-27T12:28:28.772Z,63.20
2018-07-27T12:30:57.238Z,62.40
2018-07-27T12:33:25.693Z,62.80
2018-07-27T12:35:54.092Z,62.70
2018-07-27T12:38:22.532Z,62.90
2018-07-27T12:40:50.981Z,62.10
2018-07-27T12:43:19.430Z,62.30
2018-07-27T12:45:47.865Z,62.60
2018-07-27T12:50:44.529Z,62.80
2018-07-27T12:53:12.933Z,62.50
2018-07-27T12:55:41.370Z,62.10
2018-07-27T13:00:37.908Z,61.50
2018-07-27T13:03:06.669Z,61.40
2018-07-27T13:05:35.173Z,61.30
2018-07-27T13:08:03.557Z,61.60
2018-07-27T13:13:00.180Z,58.70
2018-07-27T13:15:28.878Z,58.50
2018-07-27T13:17:57.300Z,58.90
2018-07-27T13:20:31.589Z,58.70
2018-07-27T13:23:00.066Z,59.40
2018-07-27T13:25:28.578Z,61.20
2018-07-27T13:27:56.947Z,61.20
2018-07-27T13:30:25.392Z,60.60
2018-07-27T13:32:53.798Z,61.10
2018-07-27T13:35:22.257Z,61.20
2018-07-27T13:37:50.668Z,61.20
2018-07-27T13:40:19.120Z,61.70
2018-07-27T13:42:47.564Z,61.70
2018-07-27T13:45:15.995Z,62.00
2018-07-27T13:47:44.419Z,61.50
2018-07-27T13:50:12.861Z,61.70
2018-07-27T13:52:41.271Z,61.30
2018-07-27T13:55:09.769Z,61.50
2018-07-27T13:57:38.206Z,61.50
2018-07-27T14:00:06.668Z,61.90
2018-07-27T14:05:03.305Z,61.00
2018-07-27T14:07:31.724Z,60.50
2018-07-27T14:10:00.166Z,60.50
2018-07-27T14:12:28.561Z,60.60
2018-07-27T14:14:57.037Z,61.20
2018-07-27T14:17:25.446Z,62.50
2018-07-27T14:19:53.864Z,62.30
2018-07-27T14:22:22.322Z,61.40
2018-07-27T14:24:50.742Z,61.00
2018-07-27T14:27:19.154Z,61.10
2018-07-27T14:29:47.553Z,60.30
2018-07-27T14:32:16.002Z,59.90
2018-07-27T14:34:44.390Z,60.40
2018-07-27T14:37:12.821Z,59.90
2018-07-27T14:39:41.201Z,60.50
2018-07-27T14:42:09.650Z,59.50
2018-07-27T14:44:38.049Z,59.50
2018-07-27T14:47:06.532Z,60.20
2018-07-27T14:49:35.167Z,60.40
2018-07-27T14:52:03.616Z,60.20
2018-07-27T14:54:32.011Z,59.40
2018-07-27T14:57:00.469Z,59.10
2018-07-27T15:01:57.037Z,60.90
2018-07-27T15:04:25.545Z,60.10
2018-07-27T15:06:53.973Z,59.00
2018-07-27T15:09:22.404Z,60.40
2018-07-27T15:11:50.841Z,60.60
2018-07-27T15:14:19.229Z,59.50
2018-07-27T15:16:47.657Z,59.60
2018-07-27T15:19:16.054Z,60.00
2018-07-27T15:21:44.540Z,60.10
2018-07-27T15:24:12.953Z,60.20
2018-07-27T15:26:41.394Z,59.90
2018-07-27T15:29:09.877Z,59.40
2018-07-27T15:31:38.355Z,60.50
2018-07-27T15:34:06.806Z,61.20
2018-07-27T15:36:35.281Z,61.40
2018-07-27T15:39:04.897Z,61.90
2018-07-27T15:41:33.358Z,62.30
2018-07-27T15:44:01.781Z,61.90
2018-07-27T15:46:30.204Z,61.60
2018-07-27T15:48:58.609Z,62.00
2018-07-27T15:51:29.464Z,61.60
2018-07-27T15:53:58.009Z,61.70
2018-07-27T15:56:26.479Z,62.00
2018-07-27T15:58:54.888Z,62.70
2018-07-27T16:01:23.396Z,62.10
2018-07-27T16:03:51.812Z,61.70
2018-07-27T16:06:20.268Z,61.60
2018-07-27T16:08:48.669Z,61.30
2018-07-27T16:11:17.104Z,60.90
2018-07-27T16:13:45.580Z,60.90
2018-07-27T16:16:14.084Z,61.00
2018-07-27T16:18:42.517Z,61.10
2018-07-27T16:21:10.944Z,61.20
2018-07-27T16:23:39.378Z,61.30
2018-07-27T16:26:07.810Z,61.50
2018-07-27T16:31:04.367Z,61.80
2018-07-27T16:36:00.911Z,62.40
2018-07-27T16:38:29.389Z,63.00
2018-07-27T16:40:57.922Z,62.70
2018-07-27T16:43:26.344Z,63.10
2018-07-27T16:45:54.734Z,62.80
2018-07-27T16:50:51.290Z,62.50
2018-07-27T16:53:19.777Z,62.70
2018-07-27T16:55:48.245Z,63.40
2018-07-27T16:58:16.660Z,63.30
2018-07-27T17:00:45.066Z,62.70
2018-07-27T17:03:13.528Z,62.70
2018-07-27T17:05:41.912Z,61.90
2018-07-27T17:08:10.343Z,61.70
2018-07-27T17:10:38.748Z,62.00
2018-07-27T17:13:07.184Z,62.30
2018-07-27T17:15:35.583Z,62.90
2018-07-27T17:18:04.053Z,63.20
2018-07-27T17:20:32.476Z,63.90
2018-07-27T17:23:00.963Z,63.80
2018-07-27T17:25:29.491Z,64.10
2018-07-27T17:27:57.860Z,64.20
2018-07-27T17:30:26.252Z,64.50
2018-07-27T17:32:54.696Z,64.90
2018-07-27T17:37:51.249Z,66.00
2018-07-27T17:40:19.659Z,66.80
2018-07-27T17:42:48.145Z,66.60
2018-07-27T17:47:44.774Z,66.90
2018-07-27T17:50:13.212Z,67.10
2018-07-27T17:52:41.630Z,67.10
2018-07-27T17:55:10.101Z,67.60
2018-07-27T17:57:38.584Z,67.70
2018-07-27T18:00:07.725Z,67.70
2018-07-27T18:02:36.505Z,67.80
2018-07-27T18:05:05.359Z,68.20
2018-07-27T18:07:33.822Z,68.20
2018-07-27T18:10:02.231Z,68.50
2018-07-27T18:12:30.678Z,68.80
2018-07-27T18:14:59.104Z,69.00
2018-07-27T18:19:55.639Z,69.50
2018-07-27T18:22:24.074Z,69.60
2018-07-27T18:24:52.502Z,69.80
2018-07-27T18:27:20.981Z,70.10
2018-07-27T18:29:49.425Z,70.40
2018-07-27T18:32:17.876Z,70.90
2018-07-27T18:34:46.318Z,71.40
2018-07-27T18:37:14.770Z,71.10
2018-07-27T18:39:43.217Z,71.10
2018-07-27T18:42:11.657Z,71.10
2018-07-27T18:44:40.120Z,71.10
2018-07-27T18:47:08.648Z,71.30
2018-07-27T18:49:37.095Z,71.80
2018-07-27T18:52:05.568Z,71.40
2018-07-27T18:54:34.026Z,71.50
2018-07-27T18:57:02.436Z,71.50
2018-07-27T18:59:30.871Z,72.40
2018-07-27T19:01:59.306Z,72.90
2018-07-27T19:04:27.721Z,72.70
2018-07-27T19:06:56.652Z,72.90
2018-07-27T19:09:25.084Z,73.20
2018-07-27T19:11:53.479Z,73.70
2018-07-27T19:14:21.970Z,73.90
2018-07-27T19:16:50.436Z,74.10
2018-07-27T19:19:18.857Z,74.40
2018-07-27T19:21:47.295Z,74.50
2018-07-27T19:24:15.716Z,75.10
2018-07-27T19:29:12.415Z,75.50
2018-07-27T19:31:40.864Z,75.50
2018-07-27T19:34:09.253Z,75.80
2018-07-27T19:36:37.686Z,75.50
2018-07-27T19:39:07.845Z,75.40
2018-07-27T19:41:36.296Z,75.90
2018-07-27T19:44:04.734Z,76.30
2018-07-27T19:49:01.364Z,77.00
2018-07-27T19:51:29.804Z,77.00
2018-07-27T19:53:58.309Z,77.10
2018-07-27T19:56:27.057Z,77.10
2018-07-27T19:58:55.492Z,77.30
2018-07-27T20:01:23.955Z,77.40
2018-07-27T20:03:52.404Z,77.50
2018-07-27T20:06:24.035Z,77.60
2018-07-27T20:08:52.448Z,77.60
2018-07-27T20:11:20.995Z,77.70
2018-07-27T20:13:49.477Z,77.70
2018-07-27T20:16:17.890Z,77.70
2018-07-27T20:18:46.282Z,77.80
2018-07-27T20:21:14.720Z,78.10
2018-07-27T20:23:43.121Z,78.00
2018-07-27T20:26:11.524Z,78.10
2018-07-27T20:28:39.926Z,78.10
2018-07-27T20:31:08.361Z,78.30
2018-07-27T20:33:37.000Z,78.30
2018-07-27T20:36:05.604Z,78.50
2018-07-27T20:38:34.001Z,78.40
2018-07-27T20:41:02.497Z,78.50
2018-07-27T20:43:30.898Z,78.50
2018-07-27T20:45:59.411Z,78.70
2018-07-27T20:48:27.810Z,78.60
2018-07-27T20:53:24.404Z,78.90
2018-07-27T20:55:53.068Z,78.90
2018-07-27T20:58:21.565Z,79.00
2018-07-27T21:00:50.024Z,79.20
2018-07-27T21:03:18.448Z,79.40
2018-07-27T21:05:46.836Z,79.50
2018-07-27T21:08:15.376Z,79.60
2018-07-27T21:10:43.776Z,79.50
2018-07-27T21:13:12.244Z,79.60
2018-07-27T21:15:40.672Z,79.60
2018-07-27T21:20:37.221Z,79.70
2018-07-27T21:25:33.764Z,79.70
2018-07-27T21:28:02.199Z,79.90
2018-07-27T21:30:30.596Z,80.00
2018-07-27T21:32:59.027Z,80.20
2018-07-27T21:35:27.440Z,80.30
2018-07-27T21:37:55.900Z,80.50
2018-07-27T21:40:24.347Z,80.80
2018-07-27T21:42:52.805Z,80.60
2018-07-27T21:47:49.330Z,80.80
2018-07-27T21:50:18.808Z,81.00
2018-07-27T21:52:48.144Z,81.00
2018-07-27T21:55:16.691Z,81.10
2018-07-27T21:57:45.385Z,81.20
2018-07-27T22:00:13.836Z,81.20
2018-07-27T22:02:42.319Z,81.20
2018-07-27T22:05:10.787Z,81.30
2018-07-27T22:07:39.227Z,81.40
2018-07-27T22:10:07.679Z,81.60
2018-07-27T22:12:36.129Z,81.50
2018-07-27T22:15:09.219Z,81.50
2018-07-27T22:17:37.668Z,81.50
2018-07-27T22:20:06.826Z,81.60
2018-07-27T22:22:35.272Z,81.60
2018-07-27T22:25:03.720Z,82.00
2018-07-27T22:27:32.137Z,82.10
2018-07-27T22:30:00.530Z,82.00
2018-07-27T22:32:29.010Z,82.30
2018-07-27T22:34:57.440Z,82.30
2018-07-27T22:37:25.902Z,82.40
2018-07-27T22:39:54.288Z,82.50
2018-07-27T22:42:22.772Z,82.50
2018-07-27T22:47:19.313Z,82.70
2018-07-27T22:49:47.720Z,82.70
2018-07-27T22:52:16.129Z,82.80
2018-07-27T22:54:44.545Z,82.70
2018-07-27T22:57:12.954Z,82.90
2018-07-27T22:59:41.388Z,82.90
2018-07-27T23:02:09.844Z,83.10
2018-07-27T23:04:38.280Z,83.10
2018-07-27T23:07:07.185Z,83.00
2018-07-27T23:09:35.646Z,83.10
2018-07-27T23:12:04.098Z,83.20
2018-07-27T23:14:32.520Z,83.30
2018-07-27T23:19:29.947Z,83.30
2018-07-27T23:29:22.814Z,83.10
2018-07-27T23:31:51.248Z,83.10
2018-07-27T23:34:19.657Z,83.20
2018-07-27T23:41:45.218Z,83.50
